Bville, New York
Current Conditions -  °F | °C
As of 3:54 AM on Friday 31 Oct 2014 (Local Time) from KFZY Reporting Station
Overcast Overcast  
Wind Chill:   Ceiling: 3000
Heat Index:   Visibility: 10mi
Dew Point:   Wind: 0mph
Humidity: 93%   Direction: NA
Pressure: 30.01"   Gusts: NA
Location:  43.1825°N, 76.3664°W
Report Text: KFZY 310754Z AUTO 00000KT 10SM OVC030 03/02 A3001 RMK AO2 SLP165 T00330022
Loading
Personal Weather Stations






























Interactive Weather Map
Tropical Storm Tracking
New forecast layout! Learn more

10-Day Weather Forecast

Advertisements
Track Severe Weather on mobile